createdAt,value
2022-11-28T00:01:39.171Z,101758.12
2022-11-28T00:04:09.003Z,101757.48
2022-11-28T00:06:46.777Z,101758.23
2022-11-28T00:09:16.000Z,101764.48
2022-11-28T00:11:45.917Z,101760.17
2022-11-28T00:14:15.405Z,101756.80
2022-11-28T00:16:43.599Z,101752.74
2022-11-28T00:19:12.995Z,101751.48
2022-11-28T00:21:41.892Z,101748.09
2022-11-28T00:24:10.121Z,101747.38
2022-11-28T00:26:40.768Z,101745.55
2022-11-28T00:29:10.487Z,101745.64
2022-11-28T00:31:43.152Z,101739.33
2022-11-28T00:34:13.638Z,101738.42
2022-11-28T00:36:44.187Z,101733.42
2022-11-28T00:39:13.054Z,101729.27
2022-11-28T00:41:41.519Z,101729.62
2022-11-28T00:44:09.907Z,101728.36
2022-11-28T00:46:37.783Z,101731.30
2022-11-28T00:49:05.926Z,101732.46
2022-11-28T00:51:35.450Z,101731.83
2022-11-28T00:54:05.681Z,101730.31
2022-11-28T00:56:36.688Z,101728.27
2022-11-28T00:59:05.350Z,101729.66
2022-11-28T01:01:37.500Z,101725.73
2022-11-28T01:04:08.343Z,101719.45
2022-11-28T01:06:41.554Z,101717.05
2022-11-28T01:09:13.892Z,101719.59
2022-11-28T01:11:42.859Z,101716.59
2022-11-28T01:14:13.371Z,101712.11
2022-11-28T01:16:42.065Z,101711.08
2022-11-28T01:19:10.463Z,101706.89
2022-11-28T01:21:38.533Z,101702.48
2022-11-28T01:24:06.428Z,101693.94
2022-11-28T01:26:34.262Z,101685.92
2022-11-28T01:29:02.342Z,101683.34
2022-11-28T01:31:31.056Z,101683.05
2022-11-28T01:33:59.308Z,101677.37
2022-11-28T01:36:28.004Z,101667.81
2022-11-28T01:38:55.852Z,101671.06
2022-11-28T01:41:27.415Z,101671.77
2022-11-28T01:44:06.940Z,101670.42
2022-11-28T01:46:36.179Z,101664.30
2022-11-28T01:49:22.374Z,101663.64
2022-11-28T01:51:55.848Z,101657.02
2022-11-28T01:54:26.475Z,101655.73
2022-11-28T01:57:06.421Z,101658.55
2022-11-28T01:59:39.391Z,101652.94
2022-11-28T02:02:13.541Z,101653.15
2022-11-28T02:04:42.653Z,101650.02
2022-11-28T02:07:10.908Z,101653.65
2022-11-28T02:09:38.872Z,101652.94
2022-11-28T02:12:07.058Z,101650.34
2022-11-28T02:14:55.600Z,101647.98
2022-11-28T02:17:42.819Z,101643.59
2022-11-28T02:20:29.555Z,101638.39
2022-11-28T02:23:35.191Z,101635.63
2022-11-28T02:26:31.473Z,101636.38
2022-11-28T02:29:10.655Z,101637.70
2022-11-28T02:32:14.882Z,101636.10
2022-11-28T02:34:54.825Z,101635.13
2022-11-28T02:37:27.033Z,101633.10
2022-11-28T02:40:08.928Z,101635.77
2022-11-28T02:42:52.015Z,101633.31
2022-11-28T02:45:51.127Z,101631.95
2022-11-28T02:48:44.095Z,101630.02
2022-11-28T02:51:35.883Z,101627.13
2022-11-28T02:54:06.444Z,101627.13
2022-11-28T02:56:34.400Z,101625.73
2022-11-28T02:59:02.467Z,101627.13
2022-11-28T03:01:38.458Z,101625.94
2022-11-28T03:04:47.975Z,101619.98
2022-11-28T03:07:40.399Z,101618.91
2022-11-28T03:10:19.829Z,101618.83
2022-11-28T03:13:00.935Z,101615.30
2022-11-28T03:15:41.913Z,101608.52
2022-11-28T03:18:34.355Z,101615.39
2022-11-28T03:21:43.570Z,101610.09
2022-11-28T03:24:33.353Z,101605.98
2022-11-28T03:27:10.280Z,101604.71
2022-11-28T03:29:44.524Z,101606.70
2022-11-28T03:32:20.759Z,101603.36
2022-11-28T03:34:55.862Z,101604.97
2022-11-28T03:37:30.107Z,101604.80
2022-11-28T03:40:02.881Z,101605.65
2022-11-28T03:42:36.501Z,101606.17
2022-11-28T03:45:17.240Z,101602.95
2022-11-28T03:47:49.138Z,101600.16
2022-11-28T03:50:22.146Z,101599.05
2022-11-28T03:52:59.433Z,101595.06
2022-11-28T03:55:45.633Z,101590.22
2022-11-28T03:58:37.037Z,101591.92
2022-11-28T04:01:27.013Z,101587.30
2022-11-28T04:03:59.863Z,101590.59
2022-11-28T04:06:33.313Z,101586.86
2022-11-28T04:09:13.021Z,101585.51
2022-11-28T04:11:49.646Z,101588.55
2022-11-28T04:14:26.664Z,101583.70
2022-11-28T04:17:33.444Z,101577.17
2022-11-28T04:20:12.416Z,101573.42
2022-11-28T04:22:51.196Z,101571.23
2022-11-28T04:25:22.296Z,101567.63
2022-11-28T04:28:02.994Z,101559.20
2022-11-28T04:30:31.886Z,101560.59
2022-11-28T04:33:05.916Z,101555.14
2022-11-28T04:35:38.135Z,101555.95
2022-11-28T04:38:09.530Z,101552.16
2022-11-28T04:40:44.559Z,101550.02
2022-11-28T04:43:20.438Z,101556.29
2022-11-28T04:45:56.205Z,101549.73
2022-11-28T04:48:24.342Z,101551.83
2022-11-28T04:51:09.214Z,101550.13
2022-11-28T04:54:02.528Z,101555.36
2022-11-28T04:56:47.455Z,101557.00
2022-11-28T04:59:16.228Z,101555.98
2022-11-28T05:01:47.421Z,101555.48
2022-11-28T05:04:17.325Z,101558.30
2022-11-28T05:06:45.702Z,101558.98
2022-11-28T05:09:14.468Z,101557.36
2022-11-28T05:11:44.739Z,101557.35
2022-11-28T05:14:12.654Z,101556.38
2022-11-28T05:16:40.995Z,101549.41
2022-11-28T05:19:09.208Z,101550.60
2022-11-28T05:21:37.179Z,101547.99
2022-11-28T05:24:05.849Z,101545.88
2022-11-28T05:26:35.569Z,101543.94
2022-11-28T05:29:04.259Z,101547.81
2022-11-28T05:31:32.452Z,101545.21
2022-11-28T05:34:00.648Z,101548.84
2022-11-28T05:36:28.684Z,101547.29
2022-11-28T05:38:56.859Z,101545.02
2022-11-28T05:41:30.454Z,101549.04
2022-11-28T05:43:59.558Z,101544.30
2022-11-28T05:46:28.557Z,101541.66
2022-11-28T05:48:56.925Z,101540.53
2022-11-28T05:51:25.005Z,101537.31
2022-11-28T05:53:53.176Z,101537.06
2022-11-28T05:56:23.495Z,101533.83
2022-11-28T05:58:54.497Z,101532.04
2022-11-28T06:01:25.895Z,101531.36
2022-11-28T06:04:00.057Z,101529.23
2022-11-28T06:06:33.441Z,101527.47
2022-11-28T06:09:01.817Z,101525.34
2022-11-28T06:11:31.364Z,101522.14
2022-11-28T06:13:59.765Z,101520.94
2022-11-28T06:16:30.117Z,101517.01
2022-11-28T06:19:01.017Z,101514.52
2022-11-28T06:21:30.033Z,101515.73
2022-11-28T06:23:59.539Z,101511.56
2022-11-28T06:26:28.940Z,101512.57
2022-11-28T06:28:57.319Z,101508.35
2022-11-28T06:31:28.707Z,101499.67
2022-11-28T06:33:58.375Z,101499.14
2022-11-28T06:36:26.856Z,101500.10
2022-11-28T06:38:54.933Z,101496.87
2022-11-28T06:41:23.225Z,101496.81
2022-11-28T06:43:51.588Z,101491.00
2022-11-28T06:46:21.700Z,101498.48
2022-11-28T06:48:51.928Z,101493.48
2022-11-28T06:51:20.817Z,101495.44
2022-11-28T06:53:50.020Z,101494.33
2022-11-28T06:56:19.969Z,101496.18
2022-11-28T06:58:53.517Z,101494.75
2022-11-28T07:01:23.369Z,101498.68
2022-11-28T07:03:54.558Z,101496.23
2022-11-28T07:06:25.100Z,101497.59
2022-11-28T07:08:53.821Z,101498.50
2022-11-28T07:11:25.013Z,101496.56
2022-11-28T07:13:54.663Z,101494.02
2022-11-28T07:16:25.546Z,101495.73
2022-11-28T07:18:56.219Z,101495.02
2022-11-28T07:21:24.319Z,101493.36
2022-11-28T07:23:52.592Z,101498.52
2022-11-28T07:26:21.887Z,101505.41
2022-11-28T07:28:51.365Z,101498.29
2022-11-28T07:31:22.595Z,101494.64
2022-11-28T07:33:51.438Z,101490.77
2022-11-28T07:36:25.537Z,101490.40
2022-11-28T07:38:56.684Z,101486.47
2022-11-28T07:41:26.950Z,101486.81
2022-11-28T07:43:57.509Z,101484.44
2022-11-28T07:46:26.643Z,101485.73
2022-11-28T07:48:55.319Z,101484.29
2022-11-28T07:51:32.134Z,101484.40
2022-11-28T07:54:01.921Z,101486.12
2022-11-28T07:59:22.029Z,101482.10
2022-11-28T08:01:50.391Z,101482.23
2022-11-28T08:04:18.349Z,101480.95
2022-11-28T08:06:46.375Z,101478.59
2022-11-28T08:09:14.620Z,101479.23
2022-11-28T08:11:43.201Z,101478.59
2022-11-28T08:14:11.696Z,101477.51
2022-11-28T08:16:44.933Z,101483.25
2022-11-28T08:19:13.257Z,101475.21
2022-11-28T08:21:42.152Z,101473.72
2022-11-28T08:24:11.649Z,101473.20
2022-11-28T08:26:39.635Z,101475.29
2022-11-28T08:29:08.310Z,101473.88
2022-11-28T08:31:38.597Z,101477.90
2022-11-28T08:34:09.982Z,101471.27
2022-11-28T08:36:38.001Z,101473.05
2022-11-28T08:39:23.519Z,101469.96
2022-11-28T08:41:59.859Z,101474.61
2022-11-28T08:44:30.285Z,101470.09
2022-11-28T08:46:59.120Z,101466.07
2022-11-28T08:49:27.094Z,101464.67
2022-11-28T08:51:55.170Z,101465.10
2022-11-28T08:54:23.386Z,101464.91
2022-11-28T08:56:51.409Z,101464.30
2022-11-28T08:59:19.385Z,101455.77
2022-11-28T09:01:47.577Z,101457.19
2022-11-28T09:04:15.714Z,101452.33
2022-11-28T09:06:43.831Z,101450.15
2022-11-28T09:09:11.996Z,101447.45
2022-11-28T09:11:39.944Z,101449.77
2022-11-28T09:14:08.547Z,101444.52
2022-11-28T09:16:39.309Z,101440.88
2022-11-28T09:19:09.400Z,101438.61
2022-11-28T09:21:37.921Z,101434.98
2022-11-28T09:24:06.514Z,101434.53
2022-11-28T09:26:34.474Z,101431.83
2022-11-28T09:29:02.291Z,101435.89
2022-11-28T09:31:30.253Z,101432.32
2022-11-28T09:33:58.268Z,101430.91
2022-11-28T09:36:28.601Z,101433.09
2022-11-28T09:38:56.834Z,101430.79
2022-11-28T09:41:27.347Z,101430.33
2022-11-28T09:44:29.376Z,101425.10
2022-11-28T09:47:03.925Z,101419.26
2022-11-28T09:49:45.565Z,101413.54
2022-11-28T09:52:32.437Z,101412.17
2022-11-28T09:55:14.392Z,101411.24
2022-11-28T09:57:53.648Z,101410.48
2022-11-28T10:00:28.927Z,101404.59
2022-11-28T10:03:09.389Z,101403.92
2022-11-28T10:06:11.065Z,101392.27
2022-11-28T10:09:03.470Z,101391.23
2022-11-28T10:11:37.270Z,101382.54
2022-11-28T10:14:40.466Z,101377.75
2022-11-28T10:17:46.153Z,101374.84
2022-11-28T10:20:21.460Z,101373.33
2022-11-28T10:23:07.842Z,101376.21
2022-11-28T10:25:44.372Z,101375.33
2022-11-28T10:28:23.276Z,101369.04
2022-11-28T10:30:59.918Z,101368.77
2022-11-28T10:33:40.219Z,101367.25
2022-11-28T10:36:17.220Z,101364.16
2022-11-28T10:38:45.296Z,101363.66
2022-11-28T10:41:32.196Z,101360.23
2022-11-28T10:44:27.508Z,101359.92
2022-11-28T10:47:07.146Z,101361.00
2022-11-28T10:49:56.417Z,101362.05
2022-11-28T10:52:36.070Z,101359.10
2022-11-28T10:55:27.977Z,101356.67
2022-11-28T10:58:21.532Z,101354.81
2022-11-28T11:00:55.097Z,101348.21
2022-11-28T11:03:29.953Z,101346.02
2022-11-28T11:05:58.420Z,101343.38
2022-11-28T11:08:29.528Z,101338.80
2022-11-28T11:11:34.677Z,101341.00
2022-11-28T11:14:07.307Z,101336.80
2022-11-28T11:16:53.897Z,101333.42
2022-11-28T11:19:37.476Z,101325.98
2022-11-28T11:22:24.843Z,101327.73
2022-11-28T11:25:15.877Z,101326.78
2022-11-28T11:27:50.920Z,101329.25
2022-11-28T11:30:40.252Z,101326.64
2022-11-28T11:33:17.100Z,101323.33
2022-11-28T11:35:49.428Z,101321.58
2022-11-28T11:38:20.413Z,101316.63
2022-11-28T11:40:49.938Z,101319.60
2022-11-28T11:43:33.270Z,101316.58
2022-11-28T11:46:17.368Z,101320.83
2022-11-28T11:48:47.687Z,101317.34
2022-11-28T11:51:36.611Z,101319.00
2022-11-28T11:54:24.425Z,101315.10
2022-11-28T11:57:05.828Z,101310.42
2022-11-28T11:59:56.876Z,101308.08
2022-11-28T12:02:33.545Z,101308.14
2022-11-28T12:05:10.215Z,101301.25
2022-11-28T12:07:56.521Z,101295.21
2022-11-28T12:10:27.818Z,101290.14
2022-11-28T12:12:56.650Z,101288.66
2022-11-28T12:15:33.788Z,101288.27
2022-11-28T12:18:13.742Z,101291.10
2022-11-28T12:20:56.269Z,101290.70
2022-11-28T12:23:30.161Z,101282.92
2022-11-28T12:26:10.799Z,101284.61
2022-11-28T12:28:57.541Z,101279.09
2022-11-28T12:31:53.902Z,101282.61
2022-11-28T12:35:02.473Z,101287.94
2022-11-28T12:38:10.821Z,101285.60
2022-11-28T12:41:10.785Z,101285.81
2022-11-28T12:44:11.689Z,101287.93
2022-11-28T12:46:48.509Z,101285.92
2022-11-28T12:49:17.664Z,101290.68
2022-11-28T12:52:13.929Z,101286.30
2022-11-28T12:55:06.941Z,101285.96
2022-11-28T12:57:53.850Z,101286.09
2022-11-28T13:00:26.213Z,101282.61
2022-11-28T13:03:24.765Z,101278.25
2022-11-28T13:06:11.741Z,101276.29
2022-11-28T13:08:48.724Z,101271.42
2022-11-28T13:11:27.177Z,101269.70
2022-11-28T13:14:03.185Z,101266.36
2022-11-28T13:16:31.298Z,101266.09
2022-11-28T13:19:32.096Z,101267.51
2022-11-28T13:22:25.631Z,101267.84
2022-11-28T13:25:00.830Z,101269.48
2022-11-28T13:27:36.414Z,101268.45
2022-11-28T13:30:24.669Z,101265.13
2022-11-28T13:33:23.941Z,101258.55
2022-11-28T13:35:53.365Z,101259.31
2022-11-28T13:38:36.597Z,101261.13
2022-11-28T13:41:59.494Z,101260.83
2022-11-28T13:44:28.825Z,101259.61
2022-11-28T13:46:56.933Z,101260.44
2022-11-28T13:49:27.084Z,101256.95
2022-11-28T13:52:20.350Z,101259.33
2022-11-28T13:54:50.843Z,101261.61
2022-11-28T13:57:29.211Z,101260.35
2022-11-28T14:00:02.051Z,101262.23
2022-11-28T14:02:48.308Z,101263.81
2022-11-28T14:05:41.586Z,101261.92
2022-11-28T14:08:28.445Z,101263.34
2022-11-28T14:11:21.433Z,101261.20
2022-11-28T14:14:21.800Z,101259.30
2022-11-28T14:17:13.830Z,101259.96
2022-11-28T14:20:01.012Z,101257.77
2022-11-28T14:22:41.219Z,101258.16
2022-11-28T14:25:28.776Z,101262.31
2022-11-28T14:28:07.767Z,101259.88
2022-11-28T14:30:39.978Z,101261.11
2022-11-28T14:33:26.866Z,101258.02
2022-11-28T14:35:54.958Z,101260.04
2022-11-28T14:38:33.875Z,101264.81
2022-11-28T14:41:15.407Z,101264.67
2022-11-28T14:43:46.343Z,101260.40
2022-11-28T14:46:27.048Z,101260.84
2022-11-28T14:48:58.646Z,101257.63
2022-11-28T14:51:45.659Z,101255.31
2022-11-28T14:54:35.999Z,101257.15
2022-11-28T14:57:17.039Z,101257.29
2022-11-28T14:59:45.955Z,101257.50
2022-11-28T15:02:30.884Z,101258.79
2022-11-28T15:05:07.885Z,101261.16
2022-11-28T15:08:01.573Z,101265.16
2022-11-28T15:10:39.651Z,101268.52
2022-11-28T15:13:14.078Z,101272.42
2022-11-28T15:15:49.856Z,101273.45
2022-11-28T15:18:20.602Z,101277.87
2022-11-28T15:20:58.995Z,101275.51
2022-11-28T15:23:35.599Z,101276.33
2022-11-28T15:26:03.627Z,101274.73
2022-11-28T15:28:35.624Z,101275.38
2022-11-28T15:31:05.958Z,101279.31
2022-11-28T15:33:34.803Z,101274.55
2022-11-28T15:36:12.521Z,101278.42
2022-11-28T15:38:43.045Z,101283.66
2022-11-28T15:41:11.501Z,101282.58
2022-11-28T15:43:45.746Z,101286.68
2022-11-28T15:46:32.448Z,101281.75
2022-11-28T15:49:05.330Z,101285.91
2022-11-28T15:51:35.741Z,101288.19
2022-11-28T15:54:26.751Z,101286.40
2022-11-28T15:56:59.009Z,101288.89
2022-11-28T15:59:28.635Z,101287.46
2022-11-28T16:02:10.766Z,101282.36
2022-11-28T16:04:39.626Z,101288.16
2022-11-28T16:07:14.874Z,101286.52
2022-11-28T16:10:06.288Z,101284.79
2022-11-28T16:12:34.364Z,101286.73
2022-11-28T16:15:04.068Z,101284.05
2022-11-28T16:17:34.092Z,101280.48
2022-11-28T16:20:03.288Z,101284.84
2022-11-28T16:22:37.073Z,101282.58
2022-11-28T16:25:33.010Z,101286.29
2022-11-28T16:28:01.291Z,101284.65
2022-11-28T16:30:36.757Z,101287.06
2022-11-28T16:33:38.050Z,101286.66
2022-11-28T16:36:15.157Z,101288.98
2022-11-28T16:38:44.472Z,101285.84
2022-11-28T16:41:23.097Z,101287.55
2022-11-28T16:44:07.280Z,101285.52
2022-11-28T16:46:39.308Z,101283.14
2022-11-28T16:49:37.670Z,101279.37
2022-11-28T16:52:20.946Z,101285.04
2022-11-28T16:54:53.611Z,101287.34
2022-11-28T16:57:22.489Z,101286.55
2022-11-28T16:59:54.638Z,101283.36
2022-11-28T17:02:26.882Z,101284.05
2022-11-28T17:04:55.103Z,101280.41
2022-11-28T17:07:24.321Z,101279.96
2022-11-28T17:09:52.687Z,101279.04
2022-11-28T17:12:34.788Z,101275.88
2022-11-28T17:15:03.777Z,101273.06
2022-11-28T17:17:32.075Z,101273.86
2022-11-28T17:20:00.444Z,101272.39
2022-11-28T17:22:43.357Z,101267.20
2022-11-28T17:25:16.712Z,101268.02
2022-11-28T17:27:45.154Z,101266.78
2022-11-28T17:30:15.115Z,101266.86
2022-11-28T17:32:42.991Z,101268.74
2022-11-28T17:35:18.789Z,101267.83
2022-11-28T17:37:47.562Z,101268.04
2022-11-28T17:40:34.060Z,101268.33
2022-11-28T17:43:03.250Z,101269.17
2022-11-28T17:45:35.074Z,101266.99
2022-11-28T17:48:03.455Z,101266.39
2022-11-28T17:50:31.891Z,101264.60
2022-11-28T17:53:00.001Z,101263.88
2022-11-28T17:55:29.560Z,101266.27
2022-11-28T17:57:57.427Z,101268.67
2022-11-28T18:00:25.711Z,101267.89
2022-11-28T18:02:54.605Z,101272.86
2022-11-28T18:05:22.977Z,101268.66
2022-11-28T18:07:51.173Z,101271.92
2022-11-28T18:10:19.121Z,101272.94
2022-11-28T18:12:46.967Z,101269.61
2022-11-28T18:15:15.178Z,101268.30
2022-11-28T18:17:43.240Z,101269.44
2022-11-28T18:20:12.133Z,101266.73
2022-11-28T18:22:40.237Z,101267.77
2022-11-28T18:25:09.530Z,101266.15
2022-11-28T18:27:37.496Z,101266.89
2022-11-28T18:30:06.790Z,101268.11
2022-11-28T18:32:35.156Z,101260.70
2022-11-28T18:35:03.426Z,101259.62
2022-11-28T18:37:31.321Z,101257.91
2022-11-28T18:39:59.422Z,101260.42
2022-11-28T18:42:27.957Z,101263.16
2022-11-28T18:44:56.235Z,101261.48
2022-11-28T18:47:26.187Z,101260.19
2022-11-28T18:49:54.458Z,101263.35
2022-11-28T18:52:23.010Z,101262.60
2022-11-28T18:54:51.574Z,101262.94
2022-11-28T18:57:21.914Z,101260.50
2022-11-28T18:59:54.765Z,101261.16
2022-11-28T19:02:24.009Z,101260.55
2022-11-28T19:04:53.416Z,101255.27
2022-11-28T19:07:22.965Z,101254.33
2022-11-28T19:09:51.768Z,101256.40
2022-11-28T19:12:20.595Z,101256.85
2022-11-28T19:14:48.455Z,101260.04
2022-11-28T19:17:16.821Z,101260.13
2022-11-28T19:19:45.203Z,101261.38
2022-11-28T19:22:13.697Z,101255.91
2022-11-28T19:24:41.775Z,101259.19
2022-11-28T19:27:14.311Z,101257.91
2022-11-28T19:29:43.809Z,101253.48
2022-11-28T19:32:12.775Z,101251.58
2022-11-28T19:34:41.469Z,101253.57
2022-11-28T19:37:09.717Z,101251.61
2022-11-28T19:39:37.875Z,101251.10
2022-11-28T19:42:07.327Z,101252.15
2022-11-28T19:44:35.905Z,101252.77
2022-11-28T19:47:06.233Z,101255.27
2022-11-28T19:49:34.167Z,101252.43
2022-11-28T19:52:02.852Z,101253.42
2022-11-28T19:54:30.951Z,101259.77
2022-11-28T19:56:59.130Z,101254.10
2022-11-28T19:59:27.703Z,101251.58
2022-11-28T20:01:55.801Z,101255.52
2022-11-28T20:04:24.346Z,101253.58
2022-11-28T20:06:52.520Z,101256.96
2022-11-28T20:09:20.489Z,101258.23
2022-11-28T20:11:48.970Z,101260.24
2022-11-28T20:14:19.049Z,101256.52
2022-11-28T20:16:47.509Z,101256.63
2022-11-28T20:19:18.006Z,101257.48
2022-11-28T20:21:46.740Z,101257.25
2022-11-28T20:24:16.067Z,101256.04
2022-11-28T20:26:46.929Z,101253.53
2022-11-28T20:29:16.742Z,101252.41
2022-11-28T20:31:47.668Z,101245.21
2022-11-28T20:34:19.530Z,101248.08
2022-11-28T20:36:53.790Z,101247.16
2022-11-28T20:39:21.727Z,101247.52
2022-11-28T20:41:49.895Z,101248.54
2022-11-28T20:44:19.040Z,101249.31
2022-11-28T20:46:47.371Z,101247.52
2022-11-28T20:49:16.076Z,101247.34
2022-11-28T20:51:44.239Z,101252.98
2022-11-28T20:54:13.944Z,101251.97
2022-11-28T20:57:19.210Z,101248.05
2022-11-28T20:59:32.931Z,101246.89
2022-11-28T21:02:01.391Z,101241.27
2022-11-28T21:04:29.272Z,101243.65
2022-11-28T21:06:57.142Z,101242.84
2022-11-28T21:09:25.423Z,101244.17
2022-11-28T21:11:58.980Z,101242.62
2022-11-28T21:14:29.424Z,101242.23
2022-11-28T21:16:58.905Z,101242.70
2022-11-28T21:19:27.368Z,101243.20
2022-11-28T21:21:55.348Z,101243.71
2022-11-28T21:24:23.381Z,101242.33
2022-11-28T21:26:54.516Z,101244.48
2022-11-28T21:29:24.828Z,101244.59
2022-11-28T21:31:53.434Z,101244.55
2022-11-28T21:34:22.560Z,101245.82
2022-11-28T21:36:50.780Z,101243.75
2022-11-28T21:39:20.626Z,101244.90
2022-11-28T21:41:49.007Z,101246.41
2022-11-28T21:44:17.087Z,101251.80
2022-11-28T21:46:45.958Z,101251.15
2022-11-28T21:49:14.163Z,101246.83
2022-11-28T21:51:42.308Z,101244.70
2022-11-28T21:54:11.504Z,101246.98
2022-11-28T21:56:39.687Z,101243.20
2022-11-28T21:59:08.022Z,101243.19
2022-11-28T22:01:36.190Z,101243.30
2022-11-28T22:04:05.643Z,101243.40
2022-11-28T22:06:34.235Z,101241.86
2022-11-28T22:09:08.996Z,101239.09
2022-11-28T22:11:39.686Z,101241.12
2022-11-28T22:14:08.201Z,101243.84
2022-11-28T22:16:37.373Z,101243.65
2022-11-28T22:19:05.726Z,101242.03
2022-11-28T22:22:08.428Z,101243.30
2022-11-28T22:24:37.386Z,101248.08
2022-11-28T22:27:06.215Z,101247.86
2022-11-28T22:29:35.139Z,101242.92
2022-11-28T22:32:04.529Z,101239.04
2022-11-28T22:34:37.045Z,101238.45
2022-11-28T22:37:07.694Z,101245.64
2022-11-28T22:39:35.745Z,101247.19
2022-11-28T22:42:03.869Z,101243.82
2022-11-28T22:44:32.554Z,101250.55
2022-11-28T22:47:00.411Z,101242.78
2022-11-28T22:49:29.614Z,101246.59
2022-11-28T22:51:57.795Z,101246.66
2022-11-28T22:54:26.065Z,101246.95
2022-11-28T22:56:55.374Z,101248.95
2022-11-28T22:59:23.750Z,101243.55
2022-11-28T23:01:52.062Z,101246.56
2022-11-28T23:04:20.418Z,101246.13
2022-11-28T23:06:49.403Z,101246.67
2022-11-28T23:09:19.011Z,101251.66
2022-11-28T23:11:46.984Z,101250.10
2022-11-28T23:14:15.662Z,101250.67
2022-11-28T23:16:45.169Z,101252.00
2022-11-28T23:19:16.830Z,101251.55
2022-11-28T23:21:48.133Z,101243.45
2022-11-28T23:24:20.071Z,101246.41
2022-11-28T23:26:49.163Z,101243.96
2022-11-28T23:29:18.016Z,101245.70
2022-11-28T23:31:47.076Z,101243.96
2022-11-28T23:34:16.018Z,101243.94
2022-11-28T23:36:46.650Z,101243.64
2022-11-28T23:39:17.214Z,101244.23
2022-11-28T23:41:45.967Z,101241.49
2022-11-28T23:44:15.336Z,101238.09
2022-11-28T23:46:44.262Z,101239.73
2022-11-28T23:49:12.762Z,101238.23
2022-11-28T23:51:41.629Z,101241.60
2022-11-28T23:54:11.193Z,101241.73
2022-11-28T23:56:41.674Z,101242.64
2022-11-28T23:59:13.329Z,101240.75
